createdAt,value
2022-09-24T00:01:32.769Z,1.77
2022-09-24T00:04:04.859Z,1.83
2022-09-24T00:06:34.744Z,2.10
2022-09-24T00:09:01.197Z,1.30
2022-09-24T00:11:28.648Z,1.75
2022-09-24T00:13:56.012Z,2.33
2022-09-24T00:16:23.301Z,1.77
2022-09-24T00:18:49.864Z,1.80
2022-09-24T00:21:18.255Z,1.40
2022-09-24T00:23:44.744Z,2.72
2022-09-24T00:26:30.726Z,1.33
2022-09-24T00:28:58.142Z,1.42
2022-09-24T00:31:24.926Z,1.80
2022-09-24T00:33:52.200Z,1.70
2022-09-24T00:36:19.760Z,2.00
2022-09-24T00:38:51.482Z,1.83
2022-09-24T00:41:21.746Z,1.70
2022-09-24T00:43:48.544Z,2.28
2022-09-24T00:46:37.820Z,1.42
2022-09-24T00:49:15.123Z,1.98
2022-09-24T00:51:41.748Z,1.73
2022-09-24T00:54:11.154Z,1.70
2022-09-24T00:56:38.703Z,1.48
2022-09-24T00:59:06.476Z,1.40
2022-09-24T01:01:33.040Z,3.78
2022-09-24T01:03:59.604Z,2.40
2022-09-24T01:06:26.087Z,0.95
2022-09-24T01:08:53.437Z,1.55
2022-09-24T01:11:44.969Z,1.42
2022-09-24T01:14:33.396Z,2.13
2022-09-24T01:17:18.323Z,1.38
2022-09-24T01:20:00.854Z,1.48
2022-09-24T01:23:03.473Z,1.75
2022-09-24T01:25:29.753Z,1.70
2022-09-24T01:28:13.681Z,1.25
2022-09-24T01:30:42.362Z,2.30
2022-09-24T01:33:13.121Z,2.30
2022-09-24T01:35:49.183Z,1.40
2022-09-24T01:38:17.732Z,1.58
2022-09-24T01:40:44.755Z,1.30
2022-09-24T01:43:11.292Z,1.10
2022-09-24T01:45:38.158Z,1.42
2022-09-24T01:48:04.807Z,2.10
2022-09-24T01:50:33.825Z,1.27
2022-09-24T01:53:11.781Z,2.42
2022-09-24T01:55:42.234Z,1.88
2022-09-24T01:58:10.564Z,1.23
2022-09-24T02:00:38.213Z,1.13
2022-09-24T02:03:23.971Z,3.08
2022-09-24T02:06:03.778Z,1.35
2022-09-24T02:08:33.208Z,0.80
2022-09-24T02:11:07.773Z,1.48
2022-09-24T02:13:40.113Z,1.30
2022-09-24T02:16:08.589Z,1.38
2022-09-24T02:18:36.864Z,1.48
2022-09-24T02:21:06.707Z,1.65
2022-09-24T02:23:33.720Z,1.23
2022-09-24T02:26:01.979Z,1.80
2022-09-24T02:28:28.631Z,1.10
2022-09-24T02:31:10.008Z,1.15
2022-09-24T02:33:55.574Z,1.48
2022-09-24T02:36:24.829Z,1.13
2022-09-24T02:38:52.178Z,0.90
2022-09-24T02:41:19.297Z,3.20
2022-09-24T02:43:46.029Z,1.00
2022-09-24T02:46:12.502Z,1.58
2022-09-24T02:48:39.019Z,1.05
2022-09-24T02:51:05.777Z,1.08
2022-09-24T02:53:32.724Z,0.95
2022-09-24T02:56:00.800Z,1.30
2022-09-24T02:58:28.014Z,1.60
2022-09-24T03:00:57.284Z,0.77
2022-09-24T03:03:23.970Z,1.10
2022-09-24T03:05:52.992Z,1.98
2022-09-24T03:08:20.364Z,1.40
2022-09-24T03:10:46.816Z,1.73
2022-09-24T03:13:13.730Z,1.70
2022-09-24T03:15:40.321Z,1.80
2022-09-24T03:18:06.831Z,0.88
2022-09-24T03:20:33.271Z,1.70
2022-09-24T03:22:59.868Z,1.52
2022-09-24T03:25:26.323Z,1.50
2022-09-24T03:27:52.794Z,1.05
2022-09-24T03:30:37.821Z,2.25
2022-09-24T03:33:04.288Z,1.48
2022-09-24T03:35:30.857Z,2.13
2022-09-24T03:37:57.323Z,1.10
2022-09-24T03:40:24.264Z,1.25
2022-09-24T03:42:50.837Z,1.67
2022-09-24T03:45:17.319Z,0.80
2022-09-24T03:47:43.803Z,2.65
2022-09-24T03:50:11.541Z,0.80
2022-09-24T03:52:41.245Z,0.80
2022-09-24T03:55:08.037Z,0.98
2022-09-24T03:57:34.534Z,0.93
2022-09-24T04:00:01.058Z,1.30
2022-09-24T04:02:27.551Z,1.05
2022-09-24T04:04:54.057Z,0.98
2022-09-24T04:07:20.817Z,1.17
2022-09-24T04:09:47.268Z,0.93
2022-09-24T04:12:14.427Z,1.30
2022-09-24T04:14:40.873Z,1.90
2022-09-24T04:17:07.341Z,1.05
2022-09-24T04:19:33.788Z,1.08
2022-09-24T04:22:00.300Z,1.38
2022-09-24T04:24:26.948Z,1.63
2022-09-24T04:26:53.398Z,1.00
2022-09-24T04:29:20.101Z,1.10
2022-09-24T04:31:46.593Z,1.00
2022-09-24T04:34:13.416Z,1.00
2022-09-24T04:36:39.870Z,3.45
2022-09-24T04:39:06.385Z,0.93
2022-09-24T04:41:35.000Z,0.70
2022-09-24T04:44:01.618Z,1.00
2022-09-24T04:46:28.137Z,1.70
2022-09-24T04:48:55.064Z,1.17
2022-09-24T04:51:21.999Z,1.15
2022-09-24T04:53:50.930Z,1.58
2022-09-24T04:56:17.493Z,1.80
2022-09-24T04:58:44.602Z,1.23
2022-09-24T05:01:13.253Z,1.40
2022-09-24T05:03:39.825Z,1.05
2022-09-24T05:06:06.297Z,1.40
2022-09-24T05:08:32.776Z,0.90
2022-09-24T05:11:00.010Z,0.98
2022-09-24T05:13:26.470Z,0.68
2022-09-24T05:15:52.978Z,1.10
2022-09-24T05:18:19.492Z,0.95
2022-09-24T05:20:45.939Z,0.98
2022-09-24T05:23:12.795Z,1.38
2022-09-24T05:25:59.503Z,1.58
2022-09-24T05:28:26.006Z,0.82
2022-09-24T05:30:57.223Z,1.63
2022-09-24T05:33:23.840Z,2.33
2022-09-24T05:35:57.387Z,0.70
2022-09-24T05:38:24.289Z,1.60
2022-09-24T05:40:50.860Z,2.90
2022-09-24T05:43:17.884Z,1.02
2022-09-24T05:45:45.282Z,1.48
2022-09-24T05:48:11.932Z,1.02
2022-09-24T05:50:38.439Z,1.52
2022-09-24T05:53:05.241Z,1.35
2022-09-24T05:55:32.707Z,0.93
2022-09-24T05:58:03.872Z,1.55
2022-09-24T06:00:30.328Z,1.65
2022-09-24T06:03:05.705Z,2.63
2022-09-24T06:05:34.204Z,0.98
2022-09-24T06:08:01.226Z,1.17
2022-09-24T06:10:27.724Z,1.10
2022-09-24T06:12:54.260Z,1.15
2022-09-24T06:15:20.909Z,1.08
2022-09-24T06:17:47.455Z,1.42
2022-09-24T06:20:13.991Z,0.90
2022-09-24T06:22:40.462Z,3.03
2022-09-24T06:25:07.754Z,4.10
2022-09-24T06:27:34.197Z,1.73
2022-09-24T06:30:00.643Z,1.25
2022-09-24T06:32:27.101Z,3.92
2022-09-24T06:34:58.395Z,1.77
2022-09-24T06:37:25.671Z,1.45
2022-09-24T06:39:52.123Z,2.60
2022-09-24T06:42:19.731Z,1.13
2022-09-24T06:44:46.180Z,2.78
2022-09-24T06:47:12.672Z,4.05
2022-09-24T06:49:39.150Z,3.00
2022-09-24T06:52:11.553Z,4.03
2022-09-24T06:54:41.423Z,1.45
2022-09-24T06:57:08.698Z,3.15
2022-09-24T06:59:35.549Z,1.27
2022-09-24T07:02:02.350Z,4.55
2022-09-24T07:04:28.858Z,1.70
2022-09-24T07:07:13.978Z,4.70
2022-09-24T07:09:41.464Z,2.30
2022-09-24T07:12:08.817Z,5.20
2022-09-24T07:14:35.285Z,5.57
2022-09-24T07:17:01.722Z,3.28
2022-09-24T07:19:28.176Z,6.78
2022-09-24T07:21:54.622Z,7.50
2022-09-24T07:24:21.085Z,4.53
2022-09-24T07:26:47.532Z,5.63
2022-09-24T07:29:13.998Z,5.68
2022-09-24T07:31:40.499Z,4.07
2022-09-24T07:34:08.563Z,5.57
2022-09-24T07:36:35.044Z,6.30
2022-09-24T07:39:01.488Z,6.75
2022-09-24T07:41:27.963Z,10.55
2022-09-24T07:43:55.789Z,6.63
2022-09-24T07:46:22.335Z,9.27
2022-09-24T07:48:49.130Z,4.20
2022-09-24T07:51:16.227Z,12.90
2022-09-24T07:53:42.730Z,7.45
2022-09-24T07:56:09.189Z,8.25
2022-09-24T07:58:35.670Z,7.32
2022-09-24T08:01:02.166Z,7.95
2022-09-24T08:03:28.661Z,11.77
2022-09-24T08:05:58.513Z,13.05
2022-09-24T08:08:24.996Z,11.07
2022-09-24T08:10:51.510Z,8.10
2022-09-24T08:13:18.008Z,10.52
2022-09-24T08:15:44.506Z,6.07
2022-09-24T08:18:11.027Z,12.18
2022-09-24T08:20:37.899Z,9.55
2022-09-24T08:23:07.234Z,8.27
2022-09-24T08:25:33.684Z,5.82
2022-09-24T08:28:04.414Z,6.68
2022-09-24T08:30:31.111Z,5.45
2022-09-24T08:32:58.117Z,5.90
2022-09-24T08:35:24.588Z,14.65
2022-09-24T08:37:53.768Z,6.15
2022-09-24T08:40:22.339Z,6.60
2022-09-24T08:42:50.883Z,9.95
2022-09-24T08:45:36.240Z,5.38
2022-09-24T08:48:09.925Z,4.93
2022-09-24T08:50:39.432Z,6.05
2022-09-24T08:53:33.795Z,7.57
2022-09-24T08:56:00.640Z,5.00
2022-09-24T08:58:45.475Z,5.35
2022-09-24T09:01:11.845Z,4.75
2022-09-24T09:04:00.044Z,4.60
2022-09-24T09:06:51.453Z,5.55
2022-09-24T09:09:19.834Z,11.23
2022-09-24T09:11:51.784Z,5.45
2022-09-24T09:14:45.906Z,3.88
2022-09-24T09:17:27.697Z,5.70
2022-09-24T09:19:56.548Z,8.88
2022-09-24T09:22:28.931Z,6.50
2022-09-24T09:25:01.311Z,11.77
2022-09-24T09:27:30.876Z,6.97
2022-09-24T09:29:57.858Z,9.05
2022-09-24T09:32:30.456Z,11.75
2022-09-24T09:35:20.995Z,9.93
2022-09-24T09:37:54.450Z,8.68
2022-09-24T09:40:38.229Z,10.35
2022-09-24T09:43:12.821Z,9.07
2022-09-24T09:45:57.915Z,8.45
2022-09-24T09:48:26.198Z,11.15
2022-09-24T09:50:55.555Z,7.93
2022-09-24T09:53:24.044Z,4.43
2022-09-24T09:55:57.026Z,5.53
2022-09-24T09:58:24.946Z,5.70
2022-09-24T10:00:51.927Z,4.53
2022-09-24T10:03:25.142Z,4.72
2022-09-24T10:06:11.212Z,4.40
2022-09-24T10:08:37.716Z,6.57
2022-09-24T10:11:04.172Z,5.70
2022-09-24T10:13:33.800Z,6.10
2022-09-24T10:16:03.814Z,7.60
2022-09-24T10:18:34.846Z,7.10
2022-09-24T10:21:08.365Z,6.03
2022-09-24T10:23:38.129Z,5.80
2022-09-24T10:26:05.100Z,6.85
2022-09-24T10:28:50.171Z,7.90
2022-09-24T10:31:23.905Z,5.25
2022-09-24T10:33:52.238Z,5.20
2022-09-24T10:36:26.388Z,11.25
2022-09-24T10:39:10.467Z,9.13
2022-09-24T10:41:37.006Z,4.72
2022-09-24T10:44:05.469Z,7.28
2022-09-24T10:46:50.795Z,6.47
2022-09-24T10:49:46.293Z,6.85
2022-09-24T10:53:07.090Z,4.50
2022-09-24T10:55:55.355Z,6.97
2022-09-24T10:58:53.348Z,5.22
2022-09-24T11:01:32.361Z,3.85
2022-09-24T11:04:24.031Z,6.75
2022-09-24T11:07:03.127Z,3.78
2022-09-24T11:09:41.801Z,6.47
2022-09-24T11:12:30.252Z,6.63
2022-09-24T11:15:11.803Z,5.90
2022-09-24T11:18:12.079Z,5.53
2022-09-24T11:20:50.968Z,5.80
2022-09-24T11:23:49.102Z,8.77
2022-09-24T11:26:34.320Z,5.07
2022-09-24T11:29:22.678Z,8.13
2022-09-24T11:32:06.790Z,10.95
2022-09-24T11:34:59.116Z,7.75
2022-09-24T11:37:39.063Z,8.13
2022-09-24T11:40:42.565Z,14.90
2022-09-24T11:43:35.294Z,9.13
2022-09-24T11:46:12.170Z,6.85
2022-09-24T11:48:50.492Z,9.68
2022-09-24T11:51:38.658Z,14.07
2022-09-24T11:54:24.241Z,11.60
2022-09-24T11:56:54.098Z,9.40
2022-09-24T11:59:42.364Z,9.10
2022-09-24T12:02:21.497Z,7.07
2022-09-24T12:05:14.839Z,11.77
2022-09-24T12:08:01.427Z,6.80
2022-09-24T12:10:35.314Z,11.95
2022-09-24T12:13:27.519Z,7.82
2022-09-24T12:16:00.241Z,5.93
2022-09-24T12:18:40.209Z,6.45
2022-09-24T12:21:10.436Z,8.27
2022-09-24T12:23:41.703Z,6.60
2022-09-24T12:26:08.163Z,7.20
2022-09-24T12:29:13.596Z,5.78
2022-09-24T12:32:01.371Z,5.32
2022-09-24T12:34:50.828Z,6.90
2022-09-24T12:37:20.324Z,4.35
2022-09-24T12:40:01.163Z,7.18
2022-09-24T12:42:33.819Z,6.15
2022-09-24T12:45:00.666Z,6.25
2022-09-24T12:47:28.242Z,3.97
2022-09-24T12:49:56.856Z,7.40
2022-09-24T12:52:28.601Z,4.90
2022-09-24T12:55:04.389Z,4.47
2022-09-24T12:57:38.983Z,5.50
2022-09-24T13:00:34.304Z,5.30
2022-09-24T13:03:01.144Z,4.93
2022-09-24T13:05:40.754Z,5.97
2022-09-24T13:08:10.107Z,11.73
2022-09-24T13:10:36.763Z,11.88
2022-09-24T13:13:14.857Z,5.75
2022-09-24T13:15:42.012Z,8.02
2022-09-24T13:18:11.479Z,6.15
2022-09-24T13:20:38.936Z,7.30
2022-09-24T13:23:12.246Z,5.97
2022-09-24T13:25:38.758Z,6.80
2022-09-24T13:28:37.835Z,6.30
2022-09-24T13:31:17.896Z,6.30
2022-09-24T13:33:45.603Z,5.97
2022-09-24T13:36:38.522Z,10.55
2022-09-24T13:39:20.865Z,9.73
2022-09-24T13:41:56.929Z,8.68
2022-09-24T13:44:30.863Z,15.48
2022-09-24T13:47:00.242Z,11.57
2022-09-24T13:49:27.106Z,9.95
2022-09-24T13:52:04.114Z,14.38
2022-09-24T13:54:34.158Z,9.50
2022-09-24T13:57:11.270Z,8.90
2022-09-24T13:59:37.851Z,11.02
2022-09-24T14:02:04.673Z,12.90
2022-09-24T14:04:31.316Z,12.82
2022-09-24T14:06:58.150Z,9.27
2022-09-24T14:09:34.278Z,9.45
2022-09-24T14:12:22.414Z,10.32
2022-09-24T14:14:58.150Z,8.95
2022-09-24T14:17:24.874Z,7.28
2022-09-24T14:19:55.617Z,10.38
2022-09-24T14:22:31.070Z,7.22
2022-09-24T14:25:03.906Z,6.75
2022-09-24T14:27:30.738Z,6.15
2022-09-24T14:30:02.200Z,6.82
2022-09-24T14:32:33.179Z,5.63
2022-09-24T14:35:00.947Z,20.27
2022-09-24T14:37:33.350Z,13.45
2022-09-24T14:40:14.249Z,41.72
2022-09-24T14:42:41.007Z,20.15
2022-09-24T14:45:08.290Z,17.15
2022-09-24T14:47:35.785Z,27.10
2022-09-24T14:50:04.169Z,18.60
2022-09-24T14:52:32.443Z,18.70
2022-09-24T14:55:22.061Z,13.90
2022-09-24T14:57:52.876Z,13.65
2022-09-24T15:00:25.284Z,14.50
2022-09-24T15:02:58.486Z,28.25
2022-09-24T15:05:26.417Z,20.07
2022-09-24T15:08:15.725Z,19.45
2022-09-24T15:10:42.740Z,19.98
2022-09-24T15:13:13.827Z,14.80
2022-09-24T15:15:40.334Z,20.13
2022-09-24T15:18:10.929Z,26.75
2022-09-24T15:20:38.046Z,29.45
2022-09-24T15:23:04.500Z,20.27
2022-09-24T15:25:30.948Z,19.40
2022-09-24T15:27:57.602Z,23.35
2022-09-24T15:30:24.353Z,23.25
2022-09-24T15:32:51.154Z,21.50
2022-09-24T15:35:18.907Z,17.67
2022-09-24T15:37:45.397Z,22.33
2022-09-24T15:40:22.982Z,27.88
2022-09-24T15:42:50.139Z,29.50
2022-09-24T15:45:18.654Z,18.30
2022-09-24T15:47:45.208Z,17.75
2022-09-24T15:50:12.387Z,21.20
2022-09-24T15:53:05.150Z,17.58
2022-09-24T15:55:31.611Z,17.73
2022-09-24T15:57:58.065Z,15.13
2022-09-24T16:00:24.801Z,10.52
2022-09-24T16:02:53.898Z,15.07
2022-09-24T16:05:20.591Z,59.03
2022-09-24T16:07:47.114Z,11.90
2022-09-24T16:10:13.668Z,14.43
2022-09-24T16:12:40.461Z,19.15
2022-09-24T16:15:07.367Z,15.32
2022-09-24T16:17:33.895Z,32.85
2022-09-24T16:20:00.507Z,27.17
2022-09-24T16:22:26.958Z,27.95
2022-09-24T16:24:54.189Z,22.85
2022-09-24T16:27:20.667Z,26.75
2022-09-24T16:29:47.156Z,20.15
2022-09-24T16:32:13.875Z,21.67
2022-09-24T16:34:40.914Z,21.65
2022-09-24T16:37:08.137Z,19.63
2022-09-24T16:39:34.679Z,25.45
2022-09-24T16:42:01.258Z,18.83
2022-09-24T16:44:27.586Z,19.65
2022-09-24T16:46:54.130Z,58.72
2022-09-24T16:49:22.733Z,76.60
2022-09-24T16:51:49.207Z,20.02
2022-09-24T16:54:15.676Z,38.78
2022-09-24T16:56:42.572Z,42.63
2022-09-24T16:59:10.107Z,36.70
2022-09-24T17:01:36.717Z,41.95
2022-09-24T17:04:03.215Z,33.00
2022-09-24T17:06:30.545Z,34.00
2022-09-24T17:09:15.650Z,33.35
2022-09-24T17:11:42.442Z,30.08
2022-09-24T17:14:11.491Z,24.40
2022-09-24T17:16:38.707Z,28.33
2022-09-24T17:19:05.177Z,23.80
2022-09-24T17:21:31.670Z,27.08
2022-09-24T17:23:58.163Z,28.15
2022-09-24T17:26:25.141Z,25.67
2022-09-24T17:28:53.006Z,25.85
2022-09-24T17:31:23.560Z,24.33
2022-09-24T17:34:04.421Z,21.58
2022-09-24T17:36:32.441Z,19.33
2022-09-24T17:39:00.088Z,26.67
2022-09-24T17:41:28.057Z,26.48
2022-09-24T17:43:58.383Z,26.15
2022-09-24T17:46:25.669Z,22.85
2022-09-24T17:48:53.583Z,20.08
2022-09-24T17:51:24.894Z,21.90
2022-09-24T17:53:53.060Z,21.10
2022-09-24T17:56:20.591Z,19.75
2022-09-24T17:58:47.153Z,17.98
2022-09-24T18:01:14.598Z,17.05
2022-09-24T18:03:41.206Z,13.35
2022-09-24T18:06:09.185Z,17.73
2022-09-24T18:08:39.214Z,13.82
2022-09-24T18:11:10.591Z,17.40
2022-09-24T18:13:37.172Z,16.67
2022-09-24T18:16:05.133Z,18.23
2022-09-24T18:18:31.815Z,14.02
2022-09-24T18:21:02.021Z,12.55
2022-09-24T18:23:28.719Z,15.25
2022-09-24T18:25:56.244Z,13.13
2022-09-24T18:28:23.256Z,19.23
2022-09-24T18:30:49.813Z,18.67
2022-09-24T18:33:16.317Z,14.65
2022-09-24T18:35:43.772Z,16.90
2022-09-24T18:38:10.222Z,14.70
2022-09-24T18:40:38.021Z,19.35
2022-09-24T18:43:04.498Z,18.45
2022-09-24T18:45:31.018Z,17.58
2022-09-24T18:47:57.473Z,12.63
2022-09-24T18:50:24.294Z,18.23
2022-09-24T18:52:50.750Z,12.52
2022-09-24T18:55:17.218Z,17.98
2022-09-24T18:57:43.685Z,15.45
2022-09-24T19:00:30.450Z,16.50
2022-09-24T19:02:57.432Z,17.02
2022-09-24T19:05:24.034Z,20.00
2022-09-24T19:07:50.489Z,25.42
2022-09-24T19:10:17.045Z,20.65
2022-09-24T19:12:43.841Z,20.33
2022-09-24T19:15:10.311Z,16.30
2022-09-24T19:17:36.769Z,22.20
2022-09-24T19:20:03.311Z,20.05
2022-09-24T19:22:29.753Z,17.58
2022-09-24T19:24:56.212Z,17.27
2022-09-24T19:27:22.665Z,14.70
2022-09-24T19:29:50.186Z,19.15
2022-09-24T19:32:16.738Z,17.67
2022-09-24T19:34:43.211Z,20.35
2022-09-24T19:37:09.778Z,20.77
2022-09-24T19:39:36.231Z,19.40
2022-09-24T19:42:02.687Z,16.90
2022-09-24T19:44:29.481Z,17.52
2022-09-24T19:46:55.930Z,13.13
2022-09-24T19:49:23.654Z,13.30
2022-09-24T19:51:50.093Z,18.48
2022-09-24T19:54:16.620Z,11.07
2022-09-24T19:56:43.115Z,14.38
2022-09-24T19:59:09.875Z,15.60
2022-09-24T20:01:36.650Z,16.23
2022-09-24T20:04:05.198Z,18.52
2022-09-24T20:06:33.513Z,13.55
2022-09-24T20:08:59.996Z,12.85
2022-09-24T20:11:26.570Z,14.30
2022-09-24T20:13:54.116Z,18.30
2022-09-24T20:16:22.097Z,14.18
2022-09-24T20:18:49.295Z,17.33
2022-09-24T20:21:17.148Z,16.42
2022-09-24T20:23:44.307Z,14.52
2022-09-24T20:26:29.850Z,10.93
2022-09-24T20:28:56.521Z,11.82
2022-09-24T20:31:23.087Z,11.98
2022-09-24T20:33:49.626Z,13.77
2022-09-24T20:36:19.717Z,15.60
2022-09-24T20:38:48.490Z,12.70
2022-09-24T20:41:20.120Z,11.88
2022-09-24T20:43:46.662Z,12.70
2022-09-24T20:46:16.568Z,10.95
2022-09-24T20:48:43.195Z,12.77
2022-09-24T20:51:10.691Z,12.32
2022-09-24T20:53:37.255Z,11.40
2022-09-24T20:56:05.867Z,11.50
2022-09-24T20:58:33.991Z,12.52
2022-09-24T21:01:00.680Z,8.85
2022-09-24T21:03:43.301Z,14.65
2022-09-24T21:06:15.321Z,14.03
2022-09-24T21:08:42.802Z,16.67
2022-09-24T21:11:15.927Z,15.88
2022-09-24T21:13:44.788Z,15.37
2022-09-24T21:16:11.521Z,16.90
2022-09-24T21:18:40.577Z,18.88
2022-09-24T21:21:08.769Z,17.58
2022-09-24T21:23:36.152Z,17.33
2022-09-24T21:26:19.170Z,17.48
2022-09-24T21:28:46.707Z,10.05
2022-09-24T21:31:14.211Z,12.93
2022-09-24T21:33:44.676Z,11.60
2022-09-24T21:36:12.832Z,14.00
2022-09-24T21:38:39.340Z,9.77
2022-09-24T21:41:08.576Z,10.48
2022-09-24T21:43:35.233Z,14.63
2022-09-24T21:46:07.959Z,11.98
2022-09-24T21:48:34.838Z,12.65
2022-09-24T21:51:02.537Z,14.52
2022-09-24T21:53:29.251Z,11.65
2022-09-24T21:55:55.711Z,10.05
2022-09-24T21:58:22.165Z,11.45
2022-09-24T22:00:48.663Z,9.35
2022-09-24T22:03:15.220Z,9.10
2022-09-24T22:05:43.788Z,10.35
2022-09-24T22:08:13.228Z,9.52
2022-09-24T22:10:40.793Z,8.77
2022-09-24T22:13:14.051Z,10.73
2022-09-24T22:15:43.547Z,9.80
2022-09-24T22:18:13.036Z,13.23
2022-09-24T22:20:44.188Z,13.30
2022-09-24T22:23:11.135Z,15.85
2022-09-24T22:25:38.005Z,10.48
2022-09-24T22:28:04.626Z,6.80
2022-09-24T22:30:31.282Z,11.52
2022-09-24T22:32:57.912Z,23.73
2022-09-24T22:35:43.540Z,19.33
2022-09-24T22:38:10.203Z,11.43
2022-09-24T22:40:36.738Z,15.52
2022-09-24T22:43:03.280Z,30.67
2022-09-24T22:45:29.767Z,47.22
2022-09-24T22:47:56.686Z,36.72
2022-09-24T22:50:23.164Z,21.73
2022-09-24T22:52:49.995Z,20.67
2022-09-24T22:55:16.538Z,21.20
2022-09-24T22:57:43.086Z,14.98
2022-09-24T23:00:09.987Z,13.65
2022-09-24T23:02:36.449Z,13.07
2022-09-24T23:05:03.466Z,18.20
2022-09-24T23:07:29.968Z,16.50
2022-09-24T23:09:56.460Z,15.00
2022-09-24T23:12:22.907Z,11.73
2022-09-24T23:14:52.525Z,15.50
2022-09-24T23:17:20.262Z,12.55
2022-09-24T23:19:49.456Z,10.00
2022-09-24T23:22:16.881Z,94.88
2022-09-24T23:24:43.986Z,48.63
2022-09-24T23:27:10.546Z,68.72
2022-09-24T23:29:37.505Z,69.70
2022-09-24T23:32:04.359Z,83.57
2022-09-24T23:34:30.864Z,70.05
2022-09-24T23:36:57.353Z,67.18
2022-09-24T23:39:23.839Z,61.50
2022-09-24T23:41:50.772Z,60.05
2022-09-24T23:44:17.288Z,53.83
2022-09-24T23:46:43.787Z,64.25
2022-09-24T23:49:10.283Z,56.50
2022-09-24T23:51:36.740Z,53.03
2022-09-24T23:54:03.343Z,50.88
2022-09-24T23:56:29.813Z,51.97
2022-09-24T23:58:56.283Z,46.58
